createdAt,value
2023-03-23T15:58:14.387Z,46.54
2023-03-23T16:00:43.341Z,47.21
2023-03-23T16:03:16.757Z,46.73
2023-03-23T16:05:44.018Z,47.31
2023-03-23T16:08:14.782Z,47.02
2023-03-23T16:10:43.457Z,47.31
2023-03-23T16:13:11.634Z,47.34
2023-03-23T16:15:38.346Z,47.43
2023-03-23T16:18:05.165Z,48.01
2023-03-23T16:20:33.168Z,48.23
2023-03-23T16:23:00.622Z,48.70
2023-03-23T16:25:27.402Z,49.13
2023-03-23T16:27:54.558Z,49.60
2023-03-23T16:30:26.989Z,50.09
2023-03-23T16:32:57.448Z,50.42
2023-03-23T16:35:25.571Z,50.69
2023-03-23T16:38:07.740Z,51.53
2023-03-23T16:40:37.693Z,52.26
2023-03-23T16:43:09.003Z,53.55
2023-03-23T16:45:43.924Z,53.81
2023-03-23T16:48:12.817Z,52.96
2023-03-23T16:50:40.336Z,53.68
2023-03-23T16:53:09.015Z,54.03
2023-03-23T16:55:37.076Z,54.84
2023-03-23T17:00:34.525Z,57.01
2023-03-23T17:03:01.389Z,57.82
2023-03-23T17:05:29.680Z,57.56
2023-03-23T17:07:56.777Z,58.17
2023-03-23T17:10:27.136Z,59.38
2023-03-23T17:12:55.033Z,58.80
2023-03-23T17:15:21.930Z,57.89
2023-03-23T17:17:48.812Z,58.89
2023-03-23T17:20:16.136Z,59.42
2023-03-23T17:22:42.976Z,59.90
2023-03-23T17:25:10.289Z,60.41
2023-03-23T17:27:37.716Z,60.79
2023-03-23T17:30:06.877Z,61.37
2023-03-23T17:32:34.115Z,61.47
2023-03-23T17:35:01.639Z,61.64
2023-03-23T17:37:28.472Z,62.52
2023-03-23T17:39:55.173Z,62.77
2023-03-23T17:42:22.108Z,62.56
2023-03-23T17:44:48.844Z,62.52
2023-03-23T17:47:15.774Z,63.01
2023-03-23T17:49:42.539Z,63.81
2023-03-23T17:52:09.226Z,64.60
2023-03-23T17:54:36.019Z,64.48
2023-03-23T17:57:04.112Z,64.38
2023-03-23T17:59:31.666Z,64.88
2023-03-23T18:01:58.549Z,65.14
2023-03-23T18:04:27.100Z,65.40
2023-03-23T18:06:58.214Z,65.17
2023-03-23T18:09:25.913Z,65.32
2023-03-23T18:11:53.365Z,65.33
2023-03-23T18:14:20.419Z,65.13
2023-03-23T18:16:47.711Z,65.71
2023-03-23T18:19:14.812Z,65.52
2023-03-23T18:21:43.867Z,65.85
2023-03-23T18:24:12.198Z,65.68
2023-03-23T18:26:39.197Z,66.13
2023-03-23T18:29:06.160Z,65.93
2023-03-23T18:31:33.021Z,65.79
2023-03-23T18:34:00.399Z,65.96
2023-03-23T18:36:27.714Z,65.81
2023-03-23T18:38:56.977Z,65.92
2023-03-23T18:41:24.702Z,66.23
2023-03-23T18:43:52.048Z,66.24
2023-03-23T18:46:19.072Z,66.50
2023-03-23T18:48:45.966Z,66.84
2023-03-23T18:51:12.973Z,66.60
2023-03-23T18:53:40.303Z,67.17
2023-03-23T18:56:12.903Z,67.72
2023-03-23T18:58:39.706Z,67.38
2023-03-23T19:01:11.509Z,67.69
2023-03-23T19:03:40.281Z,68.00
2023-03-23T19:06:15.373Z,68.29
2023-03-23T19:08:42.601Z,68.81
2023-03-23T19:11:12.679Z,68.87
2023-03-23T19:13:44.415Z,68.99
2023-03-23T19:16:17.527Z,68.39
2023-03-23T19:18:44.234Z,68.20
2023-03-23T19:21:15.145Z,68.52
2023-03-23T19:23:43.907Z,69.58
2023-03-23T19:26:27.629Z,69.84
2023-03-23T19:29:24.697Z,69.55
2023-03-23T19:31:43.331Z,70.82
2023-03-23T19:34:11.648Z,72.69
2023-03-23T19:36:39.796Z,74.52
2023-03-23T19:39:07.209Z,71.64
2023-03-23T19:41:35.274Z,69.50
2023-03-23T19:44:04.004Z,69.47
2023-03-23T19:46:31.677Z,69.27
2023-03-23T19:48:58.670Z,69.16
2023-03-23T19:51:27.545Z,67.26
2023-03-23T19:53:57.150Z,67.29
2023-03-23T19:56:24.598Z,66.47
2023-03-23T19:58:52.124Z,66.94
2023-03-23T20:01:19.569Z,67.75
2023-03-23T20:03:46.622Z,69.48
2023-03-23T20:06:15.367Z,70.44
2023-03-23T20:08:45.658Z,70.03
2023-03-23T20:11:14.486Z,69.21
2023-03-23T20:13:41.524Z,68.74
2023-03-23T20:16:09.098Z,67.96
2023-03-23T20:21:10.419Z,66.90
2023-03-23T20:23:38.398Z,66.39
2023-03-23T20:26:09.065Z,67.04
2023-03-23T20:28:36.112Z,67.18
2023-03-23T20:31:16.719Z,67.34
2023-03-23T20:34:00.716Z,67.50
2023-03-23T20:36:49.002Z,67.90
2023-03-23T20:39:23.291Z,71.95
2023-03-23T20:41:52.263Z,74.52
2023-03-23T20:44:23.193Z,77.59
2023-03-23T20:46:52.549Z,79.07
2023-03-23T20:49:20.858Z,78.64
2023-03-23T20:51:48.562Z,77.45
2023-03-23T20:54:16.108Z,78.10
2023-03-23T20:56:44.211Z,78.18
2023-03-23T20:59:11.507Z,77.56
2023-03-23T21:01:39.957Z,77.38
2023-03-23T21:04:15.594Z,74.92
2023-03-23T21:06:43.838Z,75.59
2023-03-23T21:09:10.651Z,75.56
2023-03-23T21:11:37.577Z,76.17
2023-03-23T21:14:04.947Z,76.06
2023-03-23T21:16:31.874Z,76.67
2023-03-23T21:18:58.792Z,76.70
2023-03-23T21:21:27.374Z,76.61
2023-03-23T21:23:55.682Z,76.99
2023-03-23T21:26:24.903Z,77.25
2023-03-23T21:28:54.149Z,77.40
2023-03-23T21:31:23.467Z,77.54
2023-03-23T21:33:50.400Z,77.69
2023-03-23T21:36:17.374Z,78.37
2023-03-23T21:38:44.818Z,79.16
2023-03-23T21:41:14.163Z,80.00
2023-03-23T21:43:41.101Z,80.43
2023-03-23T21:46:09.465Z,81.25
2023-03-23T21:48:38.733Z,83.27
2023-03-23T21:51:12.505Z,81.69
2023-03-23T21:53:39.708Z,82.75
2023-03-23T21:56:09.343Z,86.50
2023-03-23T21:58:37.202Z,84.20
2023-03-23T22:01:05.433Z,86.12
2023-03-23T22:03:32.910Z,84.93
2023-03-23T22:06:09.230Z,84.22
2023-03-23T22:08:37.497Z,85.05
2023-03-23T22:11:08.091Z,83.22
2023-03-23T22:13:37.292Z,82.08
2023-03-23T22:16:07.579Z,81.19
2023-03-23T22:18:35.834Z,79.71
2023-03-23T22:21:02.685Z,79.75
2023-03-23T22:23:29.723Z,80.08
2023-03-23T22:25:57.259Z,80.73
2023-03-23T22:28:26.602Z,80.85
2023-03-23T22:31:05.669Z,82.25
2023-03-23T22:33:33.730Z,83.21
2023-03-23T22:36:06.254Z,83.55
2023-03-23T22:38:34.760Z,83.84
2023-03-23T22:41:06.852Z,84.63
2023-03-23T22:43:37.736Z,84.76
2023-03-23T22:46:05.752Z,84.04
2023-03-23T22:48:32.931Z,83.94
2023-03-23T22:51:00.367Z,82.92
2023-03-23T22:53:27.283Z,83.63
2023-03-23T22:55:55.890Z,84.03
2023-03-23T22:58:23.442Z,83.99
2023-03-23T23:00:56.793Z,84.43
2023-03-23T23:03:24.290Z,86.17
2023-03-23T23:05:52.959Z,85.98
2023-03-23T23:08:20.773Z,88.43
2023-03-23T23:10:51.080Z,87.36
2023-03-23T23:13:18.708Z,88.18
2023-03-23T23:15:48.547Z,90.76
2023-03-23T23:18:16.128Z,94.53
2023-03-23T23:20:43.800Z,88.34
2023-03-23T23:23:11.179Z,88.27
2023-03-23T23:25:38.522Z,89.41
2023-03-23T23:28:06.482Z,89.56
2023-03-23T23:30:34.560Z,89.80
2023-03-23T23:33:01.851Z,91.57
2023-03-23T23:35:28.818Z,93.35
2023-03-23T23:37:55.577Z,89.51
2023-03-23T23:40:22.499Z,90.73
2023-03-23T23:42:51.627Z,89.92
2023-03-23T23:45:19.600Z,89.24
2023-03-23T23:47:46.979Z,89.47
2023-03-23T23:50:15.502Z,87.80
2023-03-23T23:52:44.725Z,89.20
2023-03-23T23:55:15.547Z,89.03
2023-03-23T23:57:43.855Z,88.82
